Time;durP1;ratioP1;P1;durP2;ratioP2;P2;SDS_P1;SDS_P2;PMS_P1;PMS_P2;Temp;Humidity;BMP_temperature;BMP_pressure;BME280_temperature;BME280_humidity;BME280_pressure;Samples;Min_cycle;Max_cycle;Signal;HPM_P1;HPM_P2
2021/07/08 00:02:10;;;;;;;5.90;4.73;;;21.60;99.90;;;;;;4984483;28;20617;-65
2021/07/08 00:04:42;;;;;;;4.43;4.10;;;21.60;99.90;;;;;;4982921;28;20186;-66
2021/07/08 00:07:14;;;;;;;5.83;4.30;;;21.70;99.90;;;;;;4979713;28;20675;-65
2021/07/08 00:09:40;;;;;;;4.30;4.00;;;21.70;99.90;;;;;;4968213;28;20739;-66
2021/07/08 00:12:09;;;;;;;4.97;4.30;;;21.60;99.90;;;;;;4979955;28;20617;-66
2021/07/08 00:14:35;;;;;;;4.87;4.20;;;21.60;99.90;;;;;;4979156;28;20752;-66
2021/07/08 00:17:02;;;;;;;4.90;4.50;;;21.70;99.90;;;;;;4977362;28;20674;-66
2021/07/08 00:19:32;;;;;;;4.60;4.20;;;21.70;99.90;;;;;;4978922;28;20748;-66
2021/07/08 00:22:00;;;;;;;5.10;4.03;;;21.60;99.90;;;;;;4977168;28;20614;-66
2021/07/08 00:24:26;;;;;;;4.30;4.00;;;21.50;99.90;;;;;;4979808;28;21221;-66
2021/07/08 00:26:54;;;;;;;4.60;4.20;;;21.50;99.90;;;;;;4979303;28;20613;-66
2021/07/08 00:29:22;;;;;;;5.17;4.10;;;21.40;99.90;;;;;;4975876;28;20221;-66
2021/07/08 00:31:49;;;;;;;4.53;4.23;;;21.40;99.90;;;;;;4976189;28;21194;-66
2021/07/08 00:34:15;;;;;;;5.20;4.70;;;21.40;99.90;;;;;;4977810;28;21199;-66
2021/07/08 00:36:44;;;;;;;5.60;5.10;;;21.40;99.90;;;;;;4961462;28;22212;-65
2021/07/08 00:39:14;;;;;;;6.10;4.87;;;21.40;99.90;;;;;;4977033;28;20217;-66
2021/07/08 00:41:39;;;;;;;5.00;4.50;;;21.30;99.90;;;;;;4976321;28;20705;-66
2021/07/08 00:44:08;;;;;;;4.87;4.50;;;21.30;99.90;;;;;;4975959;28;20638;-64
2021/07/08 00:46:35;;;;;;;4.80;4.40;;;21.20;99.90;;;;;;4962082;28;20186;-66
2021/07/08 00:49:05;;;;;;;4.83;4.47;;;21.20;99.90;;;;;;4976123;28;20660;-66
2021/07/08 00:51:33;;;;;;;4.87;4.57;;;21.20;99.90;;;;;;4981660;28;20621;-66
2021/07/08 00:53:59;;;;;;;5.17;4.73;;;21.10;99.90;;;;;;4976805;28;20820;-66
2021/07/08 00:56:28;;;;;;;5.20;4.60;;;21.10;99.90;;;;;;4978230;28;20610;-66
2021/07/08 00:59:31;;;;;;;4.93;4.50;;;21.00;99.90;;;;;;4976600;28;20206;-65
2021/07/08 01:01:58;;;;;;;4.87;4.47;;;21.00;99.90;;;;;;4978922;28;20635;-66
2021/07/08 01:04:26;;;;;;;5.13;4.73;;;20.90;99.90;;;;;;4980789;28;20609;-66
2021/07/08 01:07:02;;;;;;;4.23;3.93;;;20.90;99.90;;;;;;4978540;28;20688;-66
2021/07/08 01:09:33;;;;;;;5.70;5.20;;;20.80;99.90;;;;;;4995733;28;20640;-65
2021/07/08 01:12:03;;;;;;;5.40;5.00;;;20.80;99.90;;;;;;4976199;28;21272;-66
2021/07/08 01:14:31;;;;;;;4.30;4.00;;;20.80;99.90;;;;;;4975746;28;20627;-65
2021/07/08 01:16:59;;;;;;;4.70;4.33;;;20.80;99.90;;;;;;4975881;28;20672;-66
2021/07/08 01:19:29;;;;;;;5.33;4.70;;;20.70;99.90;;;;;;4975206;28;20665;-66
2021/07/08 01:21:55;;;;;;;5.27;4.77;;;20.70;99.90;;;;;;4978004;28;20625;-66
2021/07/08 01:24:20;;;;;;;6.23;4.30;;;20.70;99.90;;;;;;4980666;28;20616;-66
2021/07/08 01:26:49;;;;;;;4.80;4.50;;;20.60;99.90;;;;;;4977054;28;20190;-66
2021/07/08 01:29:17;;;;;;;4.70;4.30;;;20.70;99.90;;;;;;4978240;28;20289;-66
2021/07/08 01:31:42;;;;;;;5.60;4.70;;;20.60;99.90;;;;;;4977766;28;20712;-66
2021/07/08 01:34:10;;;;;;;5.43;5.03;;;20.60;99.90;;;;;;4965786;28;20617;-66
2021/07/08 01:36:45;;;;;;;4.33;4.03;;;20.60;99.90;;;;;;4978613;28;20268;-66
2021/07/08 01:39:13;;;;;;;4.97;4.47;;;20.60;99.90;;;;;;4979584;28;20742;-66
2021/07/08 01:41:40;;;;;;;5.03;4.70;;;20.60;99.90;;;;;;4979975;28;20723;-66
2021/07/08 01:44:05;;;;;;;5.20;4.80;;;20.60;99.90;;;;;;4982251;28;21276;-66
2021/07/08 01:46:31;;;;;;;4.47;4.10;;;20.50;99.90;;;;;;4957498;28;20610;-65
2021/07/08 01:48:56;;;;;;;5.47;4.70;;;20.50;99.90;;;;;;4980196;28;20193;-65
2021/07/08 01:51:27;;;;;;;4.33;4.03;;;20.40;99.90;;;;;;4977730;28;20231;-66
2021/07/08 01:53:59;;;;;;;5.40;4.87;;;20.40;99.90;;;;;;4978970;28;20187;-66
2021/07/08 01:56:29;;;;;;;4.77;4.40;;;20.40;99.90;;;;;;4979273;28;20613;-66
2021/07/08 01:59:00;;;;;;;4.90;4.50;;;20.30;99.90;;;;;;4964118;28;20661;-65
2021/07/08 02:01:30;;;;;;;4.67;4.37;;;20.40;99.90;;;;;;4979113;28;20628;-66
2021/07/08 02:03:59;;;;;;;7.70;4.33;;;20.40;99.90;;;;;;4983087;28;20649;-65
2021/07/08 02:06:32;;;;;;;4.30;4.00;;;20.40;99.90;;;;;;4992066;28;20606;-65
2021/07/08 02:08:58;;;;;;;4.63;4.23;;;20.40;99.90;;;;;;4991143;28;20636;-66
2021/07/08 02:11:24;;;;;;;4.80;4.43;;;20.40;99.90;;;;;;4968548;28;20700;-66
2021/07/08 02:13:52;;;;;;;5.03;4.63;;;20.40;99.90;;;;;;4982248;28;20205;-65
2021/07/08 02:16:23;;;;;;;5.27;4.87;;;20.30;99.90;;;;;;4986330;28;20202;-66
2021/07/08 02:18:52;;;;;;;6.30;4.83;;;20.30;99.90;;;;;;4981217;28;20800;-66
2021/07/08 02:21:21;;;;;;;4.60;4.20;;;20.30;99.90;;;;;;4981129;28;21152;-66
2021/07/08 02:23:49;;;;;;;5.60;4.47;;;20.30;99.90;;;;;;4961239;28;20617;-66
2021/07/08 02:26:14;;;;;;;4.27;3.97;;;20.30;99.90;;;;;;4979653;28;20707;-66
2021/07/08 02:28:43;;;;;;;5.03;4.63;;;20.20;99.90;;;;;;4979495;28;20665;-66
2021/07/08 02:31:11;;;;;;;5.10;4.67;;;20.20;99.90;;;;;;4982295;28;20285;-66
2021/07/08 02:33:40;;;;;;;4.97;4.60;;;20.20;99.90;;;;;;4985411;28;21249;-66
2021/07/08 02:36:06;;;;;;;4.63;4.23;;;20.20;99.90;;;;;;4979627;28;20680;-66
2021/07/08 02:38:33;;;;;;;5.23;4.63;;;20.20;99.90;;;;;;4976165;28;20669;-66
2021/07/08 02:41:05;;;;;;;4.90;4.50;;;20.30;99.90;;;;;;4978340;28;20897;-66
2021/07/08 02:43:32;;;;;;;4.27;3.93;;;20.20;99.90;;;;;;4964267;28;21172;-66
2021/07/08 02:46:04;;;;;;;5.00;4.60;;;20.20;99.90;;;;;;4968113;28;21136;-66
2021/07/08 02:48:33;;;;;;;4.20;3.90;;;20.20;99.90;;;;;;4992163;28;20706;-66
2021/07/08 02:50:59;;;;;;;4.60;4.30;;;20.20;99.90;;;;;;4992430;28;20634;-67
2021/07/08 02:53:24;;;;;;;4.90;4.43;;;20.20;99.90;;;;;;4981723;28;20672;-66
2021/07/08 02:55:53;;;;;;;5.00;4.60;;;20.20;99.90;;;;;;4975442;28;20233;-66
2021/07/08 02:58:21;;;;;;;4.40;4.10;;;20.20;99.90;;;;;;4967536;28;20259;-65
2021/07/08 03:00:56;;;;;;;4.57;4.17;;;20.10;99.90;;;;;;4979449;28;20997;-66
2021/07/08 03:03:27;;;;;;;5.23;4.83;;;20.10;99.90;;;;;;4959964;28;20694;-66
2021/07/08 03:05:55;;;;;;;5.20;4.80;;;20.10;99.90;;;;;;4965729;28;20633;-66
2021/07/08 03:08:20;;;;;;;5.10;4.70;;;20.10;99.90;;;;;;4976249;28;21187;-65
2021/07/08 03:10:48;;;;;;;5.07;4.60;;;20.10;99.90;;;;;;4982535;28;20649;-66
2021/07/08 03:13:14;;;;;;;4.90;4.50;;;20.20;99.90;;;;;;4984561;28;20186;-66
2021/07/08 03:15:39;;;;;;;5.20;4.70;;;20.10;99.90;;;;;;4979394;28;20628;-65
2021/07/08 03:18:07;;;;;;;6.80;5.20;;;20.10;99.90;;;;;;4983284;28;20206;-66
2021/07/08 03:20:36;;;;;;;4.93;4.53;;;20.10;99.90;;;;;;4982282;28;20213;-66
2021/07/08 03:23:05;;;;;;;4.63;4.30;;;20.10;99.90;;;;;;4978843;28;20649;-67
2021/07/08 03:25:33;;;;;;;5.00;4.60;;;20.10;99.90;;;;;;4963066;28;20625;-66
2021/07/08 03:27:59;;;;;;;5.40;4.90;;;20.10;99.90;;;;;;4980891;28;20948;-66
2021/07/08 03:30:30;;;;;;;4.77;4.37;;;20.20;99.90;;;;;;4982157;28;20996;-65
2021/07/08 03:32:58;;;;;;;4.77;4.47;;;20.20;99.90;;;;;;4980649;28;20194;-66
2021/07/08 03:35:32;;;;;;;4.97;4.53;;;20.20;99.90;;;;;;4984290;28;20635;-66
2021/07/08 03:38:00;;;;;;;5.43;5.03;;;20.20;99.90;;;;;;4965003;28;20676;-66
2021/07/08 03:40:37;;;;;;;5.53;5.07;;;20.10;99.90;;;;;;4997432;23;20727;-68
2021/07/08 03:43:03;;;;;;;5.40;5.00;;;20.10;99.90;;;;;;4984098;28;20582;-68
2021/07/08 03:45:31;;;;;;;5.77;5.47;;;20.10;99.90;;;;;;4981381;28;20609;-68
2021/07/08 03:47:57;;;;;;;5.13;4.83;;;20.20;99.90;;;;;;4982192;28;20617;-68
2021/07/08 03:50:32;;;;;;;5.70;5.20;;;20.20;99.90;;;;;;4968113;28;20740;-68
2021/07/08 03:52:58;;;;;;;5.10;4.70;;;20.20;99.90;;;;;;4960474;28;20269;-68
2021/07/08 03:55:24;;;;;;;5.47;5.00;;;20.20;99.90;;;;;;4958192;28;21047;-68
2021/07/08 03:57:53;;;;;;;5.37;5.07;;;20.20;99.90;;;;;;4958790;28;20666;-68
2021/07/08 04:00:40;;;;;;;5.60;5.10;;;20.20;99.90;;;;;;4960433;28;20688;-67
2021/07/08 04:03:12;;;;;;;5.50;5.20;;;20.20;99.90;;;;;;4961327;28;20663;-66
2021/07/08 04:05:41;;;;;;;5.53;5.13;;;20.20;99.90;;;;;;4960418;28;20998;-67
2021/07/08 04:08:08;;;;;;;5.30;4.90;;;20.20;99.90;;;;;;4956366;28;20734;-67
2021/07/08 04:10:36;;;;;;;5.97;5.40;;;20.20;99.90;;;;;;4964511;28;20646;-67
2021/07/08 04:13:10;;;;;;;6.40;5.90;;;20.20;99.90;;;;;;4961766;28;21308;-67
2021/07/08 04:15:39;;;;;;;5.60;5.20;;;20.20;99.90;;;;;;4961981;28;20720;-67
2021/07/08 04:18:13;;;;;;;6.00;5.40;;;20.30;99.90;;;;;;4963701;28;21249;-67
2021/07/08 04:20:44;;;;;;;6.23;5.57;;;20.20;99.90;;;;;;4943809;28;20979;-67
2021/07/08 04:23:18;;;;;;;5.97;5.43;;;20.30;99.90;;;;;;4951138;28;20626;-67
2021/07/08 04:25:48;;;;;;;6.80;6.10;;;20.20;99.90;;;;;;4963508;28;20696;-67
2021/07/08 04:28:18;;;;;;;5.87;5.37;;;20.30;99.90;;;;;;4962999;28;20614;-67
2021/07/08 04:30:48;;;;;;;6.50;6.00;;;20.30;99.90;;;;;;4958269;28;20641;-67
2021/07/08 04:33:14;;;;;;;6.30;5.80;;;20.30;99.90;;;;;;4963910;28;20637;-67
2021/07/08 04:35:45;;;;;;;5.67;5.27;;;20.30;99.90;;;;;;4964305;28;21018;-67
2021/07/08 04:38:13;;;;;;;7.23;6.60;;;20.40;99.90;;;;;;4951898;28;20211;-67
2021/07/08 04:40:42;;;;;;;6.70;6.20;;;20.40;99.90;;;;;;4965155;28;20669;-67
2021/07/08 04:43:08;;;;;;;6.93;6.43;;;20.30;99.90;;;;;;4961996;28;20594;-67
2021/07/08 04:45:36;;;;;;;6.33;5.80;;;20.30;99.90;;;;;;4956837;28;20611;-67
2021/07/08 04:48:03;;;;;;;6.90;6.30;;;20.30;99.90;;;;;;4959806;28;20623;-67
2021/07/08 04:50:33;;;;;;;8.60;6.20;;;20.30;99.90;;;;;;4960598;28;20670;-67
2021/07/08 04:52:59;;;;;;;6.90;6.30;;;20.30;99.90;;;;;;4959861;28;20634;-66
2021/07/08 04:55:25;;;;;;;7.00;6.40;;;20.40;99.90;;;;;;4942073;28;20988;-66
2021/07/08 04:57:56;;;;;;;7.03;6.33;;;20.40;99.90;;;;;;4960651;28;20215;-66
2021/07/08 05:00:25;;;;;;;8.10;6.70;;;20.40;99.90;;;;;;4937498;28;21102;-65
2021/07/08 05:02:53;;;;;;;7.37;6.77;;;20.50;99.90;;;;;;4959060;28;20602;-64
2021/07/08 05:05:22;;;;;;;7.30;6.70;;;20.50;99.90;;;;;;4959897;28;21125;-64
2021/07/08 05:07:50;;;;;;;6.90;6.40;;;20.50;99.90;;;;;;4961702;28;20701;-65
2021/07/08 05:10:17;;;;;;;6.43;5.93;;;20.50;99.90;;;;;;4959751;28;20658;-64
2021/07/08 05:12:45;;;;;;;7.80;7.07;;;20.50;99.90;;;;;;4959523;28;20633;-65
2021/07/08 05:15:20;;;;;;;7.60;7.00;;;20.50;99.90;;;;;;4964441;28;21159;-65
2021/07/08 05:17:49;;;;;;;8.97;7.20;;;20.60;99.90;;;;;;4963355;28;20649;-64
2021/07/08 05:20:17;;;;;;;7.60;6.90;;;20.60;99.90;;;;;;4946843;28;20748;-65
2021/07/08 05:22:49;;;;;;;8.10;7.30;;;20.60;99.90;;;;;;4961501;28;20754;-66
2021/07/08 05:25:16;;;;;;;8.50;7.80;;;20.60;99.90;;;;;;4959811;28;20614;-65
2021/07/08 05:27:45;;;;;;;7.67;7.17;;;20.60;99.90;;;;;;4962313;28;20648;-65
2021/07/08 05:30:11;;;;;;;7.90;7.10;;;20.60;99.90;;;;;;4960608;28;20696;-65
2021/07/08 05:32:37;;;;;;;7.63;7.13;;;20.70;99.90;;;;;;4958006;28;20700;-65
2021/07/08 05:35:04;;;;;;;8.60;7.97;;;20.70;99.90;;;;;;4959636;28;20631;-65
2021/07/08 05:37:30;;;;;;;7.53;7.03;;;20.80;99.90;;;;;;4952991;28;20195;-65
2021/07/08 05:39:56;;;;;;;8.00;7.40;;;20.80;99.90;;;;;;4956563;28;20806;-65
2021/07/08 05:42:24;;;;;;;7.80;7.30;;;20.80;99.90;;;;;;4954328;28;20742;-65
2021/07/08 05:44:54;;;;;;;9.43;7.73;;;20.80;99.90;;;;;;4948109;28;20194;-65
2021/07/08 05:47:20;;;;;;;7.90;7.10;;;20.90;99.90;;;;;;4936015;28;20675;-65
2021/07/08 05:49:45;;;;;;;9.03;8.33;;;20.90;99.90;;;;;;4949508;28;20706;-65
2021/07/08 05:52:11;;;;;;;9.20;8.40;;;20.90;99.90;;;;;;4931357;28;20586;-65
2021/07/08 05:54:36;;;;;;;9.20;8.40;;;20.90;99.90;;;;;;4939063;28;20202;-65
2021/07/08 05:57:03;;;;;;;15.43;9.00;;;20.80;99.90;;;;;;4952469;28;20195;-65
2021/07/08 05:59:29;;;;;;;8.83;7.93;;;21.00;99.90;;;;;;4947395;28;20210;-65
2021/07/08 06:01:55;;;;;;;9.23;8.33;;;21.00;99.90;;;;;;4943704;28;20710;-65
2021/07/08 06:04:21;;;;;;;9.10;8.30;;;21.10;99.90;;;;;;4919089;28;21209;-65
2021/07/08 06:06:46;;;;;;;9.73;8.83;;;21.10;99.90;;;;;;4936466;28;20618;-66
2021/07/08 06:09:12;;;;;;;9.43;7.97;;;21.10;99.90;;;;;;4948589;28;20684;-65
2021/07/08 06:11:38;;;;;;;8.30;7.70;;;21.20;99.90;;;;;;4955269;28;20822;-69
2021/07/08 06:14:03;;;;;;;9.20;8.40;;;21.20;99.90;;;;;;4952413;28;20203;-69
2021/07/08 06:16:29;;;;;;;8.93;8.23;;;21.30;99.90;;;;;;4952822;28;20618;-68
2021/07/08 06:18:55;;;;;;;8.50;7.77;;;21.30;99.90;;;;;;4946229;28;20494;-68
2021/07/08 06:21:20;;;;;;;9.10;8.33;;;21.30;99.90;;;;;;4953120;28;20191;-68
2021/07/08 06:23:46;;;;;;;9.30;8.47;;;21.40;99.90;;;;;;4946782;28;20210;-68
2021/07/08 06:26:12;;;;;;;10.57;9.03;;;21.40;99.90;;;;;;4946445;28;20221;-67
2021/07/08 06:28:41;;;;;;;8.93;8.03;;;21.50;99.90;;;;;;4928408;28;20199;-68
2021/07/08 06:31:07;;;;;;;10.80;8.43;;;21.50;99.90;;;;;;4943722;28;21215;-69
2021/07/08 06:33:33;;;;;;;9.00;8.10;;;21.60;99.90;;;;;;4947597;28;20631;-68
2021/07/08 06:35:58;;;;;;;8.80;8.07;;;21.70;99.90;;;;;;4954760;28;20205;-68
2021/07/08 06:38:24;;;;;;;8.90;8.00;;;21.70;99.90;;;;;;4951590;28;20222;-68
2021/07/08 06:40:50;;;;;;;8.80;8.00;;;21.70;99.90;;;;;;4942121;28;20289;-68
2021/07/08 06:43:16;;;;;;;9.10;8.30;;;21.70;99.90;;;;;;4947230;28;20191;-68
2021/07/08 06:45:42;;;;;;;9.60;8.70;;;21.80;99.90;;;;;;4947832;28;20642;-67
2021/07/08 06:48:09;;;;;;;14.77;8.53;;;21.80;99.90;;;;;;4926533;28;20647;-68
2021/07/08 06:50:36;;;;;;;8.90;8.30;;;21.80;99.90;;;;;;4930474;28;20231;-67
2021/07/08 06:53:05;;;;;;;8.97;8.27;;;21.80;99.90;;;;;;4932479;28;20854;-68
2021/07/08 06:55:32;;;;;;;9.13;8.43;;;21.80;99.90;;;;;;4944166;28;20657;-68
2021/07/08 06:57:57;;;;;;;8.60;7.80;;;21.80;99.90;;;;;;4942634;28;20658;-67
2021/07/08 07:00:33;;;;;;;8.70;7.90;;;21.80;99.90;;;;;;4945520;28;20641;-67
2021/07/08 07:02:59;;;;;;;8.67;7.87;;;21.80;99.90;;;;;;4946370;28;23119;-67
2021/07/08 07:05:27;;;;;;;7.97;7.40;;;21.80;99.90;;;;;;4943188;28;20634;-67
2021/07/08 07:07:53;;;;;;;8.87;8.00;;;21.80;99.90;;;;;;4944558;28;20630;-67
2021/07/08 07:10:20;;;;;;;8.00;7.40;;;21.90;99.90;;;;;;4950895;28;20734;-67
2021/07/08 07:12:48;;;;;;;8.20;7.63;;;21.90;99.90;;;;;;4924631;28;20622;-67
2021/07/08 07:15:16;;;;;;;9.13;8.20;;;22.00;99.90;;;;;;4944909;28;20610;-67
2021/07/08 07:17:42;;;;;;;8.27;7.57;;;22.00;99.90;;;;;;4940243;28;21243;-67
2021/07/08 07:20:10;;;;;;;8.73;8.00;;;22.10;99.90;;;;;;4940525;28;20642;-67
2021/07/08 07:22:37;;;;;;;8.20;7.40;;;22.20;99.90;;;;;;4950199;28;20625;-67
2021/07/08 07:25:04;;;;;;;9.30;8.50;;;22.20;99.90;;;;;;4946508;28;21181;-67
2021/07/08 07:27:30;;;;;;;9.63;8.50;;;22.30;99.90;;;;;;4949957;28;20610;-67
2021/07/08 07:29:56;;;;;;;8.27;7.47;;;22.40;99.90;;;;;;4941673;28;20693;-67
2021/07/08 07:32:21;;;;;;;8.47;7.73;;;22.50;99.90;;;;;;4941423;28;20195;-67
2021/07/08 07:34:47;;;;;;;7.80;7.20;;;22.60;99.90;;;;;;4950901;28;20180;-67
2021/07/08 07:37:12;;;;;;;7.73;7.07;;;22.70;99.90;;;;;;4950094;28;20675;-66
2021/07/08 07:39:38;;;;;;;7.90;7.30;;;22.80;99.90;;;;;;4944296;28;20590;-68
2021/07/08 07:42:06;;;;;;;8.10;7.27;;;22.90;99.90;;;;;;4945159;28;20290;-68
2021/07/08 07:44:32;;;;;;;7.57;6.93;;;22.90;99.90;;;;;;4943242;28;20386;-68
2021/07/08 07:46:57;;;;;;;7.70;7.00;;;22.90;99.90;;;;;;4945727;28;21133;-67
2021/07/08 07:49:23;;;;;;;8.13;7.30;;;22.90;99.90;;;;;;4945364;28;20302;-67
2021/07/08 07:51:49;;;;;;;7.27;6.67;;;22.90;99.90;;;;;;4950177;28;20207;-68
2021/07/08 07:54:15;;;;;;;7.43;6.83;;;23.00;99.90;;;;;;4933203;28;20242;-68
2021/07/08 07:56:40;;;;;;;7.83;7.13;;;23.00;99.90;;;;;;4947368;28;20187;-68
2021/07/08 07:59:06;;;;;;;9.37;7.10;;;23.10;99.90;;;;;;4937625;28;20219;-68
2021/07/08 08:01:31;;;;;;;7.07;6.50;;;23.10;99.90;;;;;;4940068;28;20563;-68
2021/07/08 08:03:59;;;;;;;7.90;7.10;;;23.20;99.90;;;;;;4944034;28;20199;-68
2021/07/08 08:09:09;;;;;;;7.00;6.40;;;23.40;99.90;;;;;;4947945;28;20588;-69
2021/07/08 08:11:34;;;;;;;8.00;7.27;;;23.40;99.90;;;;;;4948013;28;20717;-69
2021/07/08 08:14:00;;;;;;;8.80;6.60;;;23.40;99.90;;;;;;4943626;28;20213;-69
2021/07/08 08:16:25;;;;;;;7.23;6.20;;;23.60;99.90;;;;;;4930016;28;20210;-68
2021/07/08 08:18:51;;;;;;;6.60;6.07;;;23.50;99.90;;;;;;4932386;28;22558;-67
2021/07/08 08:21:16;;;;;;;6.10;5.60;;;23.60;99.90;;;;;;4946669;28;20589;-67
2021/07/08 08:23:42;;;;;;;5.83;5.40;;;23.70;99.90;;;;;;4951282;28;20627;-67
2021/07/08 08:26:07;;;;;;;6.17;5.60;;;23.70;99.90;;;;;;4935257;28;20262;-67
2021/07/08 08:28:33;;;;;;;6.50;5.90;;;23.70;99.90;;;;;;4948696;28;20207;-66
2021/07/08 08:30:59;;;;;;;6.60;6.00;;;23.80;99.90;;;;;;4945469;28;20222;-66
2021/07/08 08:33:24;;;;;;;7.30;6.60;;;24.00;99.90;;;;;;4926422;28;20198;-66
2021/07/08 08:35:50;;;;;;;7.37;6.67;;;23.90;99.90;;;;;;4931275;28;20191;-66
2021/07/08 08:38:16;;;;;;;6.47;5.60;;;24.00;99.90;;;;;;4951047;28;20561;-66
2021/07/08 08:40:42;;;;;;;5.57;5.17;;;24.10;99.90;;;;;;4952669;28;20667;-66
2021/07/08 08:43:08;;;;;;;5.43;5.03;;;24.20;99.90;;;;;;4932539;28;20511;-66
2021/07/08 08:45:33;;;;;;;6.67;5.67;;;24.20;99.90;;;;;;4948808;28;20190;-66
2021/07/08 08:48:05;;;;;;;5.70;5.20;;;24.20;99.90;;;;;;4955804;28;20336;-67
2021/07/08 08:50:43;;;;;;;6.07;5.57;;;24.30;99.90;;;;;;4949370;28;20276;-66
2021/07/08 08:53:12;;;;;;;6.50;5.50;;;24.40;99.90;;;;;;4952476;28;20643;-66
2021/07/08 08:55:39;;;;;;;5.60;4.80;;;24.40;99.90;;;;;;4945395;28;20666;-67
2021/07/08 08:58:07;;;;;;;4.80;4.50;;;24.50;99.90;;;;;;4946154;28;20649;-66
2021/07/08 09:00:43;;;;;;;5.20;4.80;;;24.60;99.90;;;;;;4948971;28;20637;-66
2021/07/08 09:03:17;;;;;;;6.10;5.60;;;24.60;99.90;;;;;;4949066;28;20633;-66
2021/07/08 09:05:47;;;;;;;5.90;5.40;;;24.70;99.90;;;;;;4936998;28;20630;-66
2021/07/08 09:08:19;;;;;;;6.33;4.70;;;24.70;99.90;;;;;;4948164;28;20643;-66
2021/07/08 09:10:49;;;;;;;5.87;4.87;;;24.80;99.90;;;;;;4948711;28;20656;-66
2021/07/08 09:13:15;;;;;;;5.47;5.00;;;24.80;99.90;;;;;;4945585;28;20615;-66
2021/07/08 09:15:41;;;;;;;4.83;4.30;;;24.80;99.90;;;;;;4948209;28;20999;-66
2021/07/08 09:18:06;;;;;;;4.73;4.33;;;24.90;99.90;;;;;;4942817;28;20661;-68
2021/07/08 09:20:35;;;;;;;4.80;4.40;;;25.00;99.90;;;;;;4936081;28;20235;-66
2021/07/08 09:23:30;;;;;;;4.50;4.10;;;25.00;99.90;;;;;;4949362;28;20195;-67
2021/07/08 09:25:55;;;;;;;4.47;4.10;;;25.00;99.90;;;;;;4917049;28;20643;-66
2021/07/08 09:28:26;;;;;;;4.77;4.13;;;25.10;99.90;;;;;;4941900;28;20708;-66
2021/07/08 09:30:58;;;;;;;5.13;4.73;;;25.10;99.90;;;;;;4942432;28;20203;-66
2021/07/08 09:33:35;;;;;;;4.70;3.73;;;25.20;99.90;;;;;;4951737;28;20633;-65
2021/07/08 09:36:09;;;;;;;5.73;4.27;;;25.10;99.90;;;;;;4941051;28;21214;-64
2021/07/08 09:38:35;;;;;;;4.90;4.40;;;25.10;99.90;;;;;;4944470;28;20814;-66
2021/07/08 09:41:14;;;;;;;5.03;4.00;;;25.10;99.90;;;;;;4930895;28;20674;-65
2021/07/08 09:43:40;;;;;;;4.30;4.00;;;25.10;99.90;;;;;;4952032;28;20578;-66
2021/07/08 09:46:07;;;;;;;5.63;4.03;;;25.10;99.90;;;;;;4975555;23;20999;-71
2021/07/08 09:48:33;;;;;;;4.70;4.20;;;25.20;99.90;;;;;;4977499;28;20973;-72
2021/07/08 09:50:59;;;;;;;4.03;3.73;;;25.20;99.90;;;;;;4972751;28;20618;-72
2021/07/08 09:53:26;;;;;;;6.37;4.50;;;25.20;99.90;;;;;;4968654;28;20191;-71
2021/07/08 09:56:21;;;;;;;5.77;4.10;;;25.30;99.90;;;;;;4979825;28;20205;-72
2021/07/08 09:58:56;;;;;;;4.80;4.20;;;25.20;99.90;;;;;;4988726;28;20625;-72
2021/07/08 10:01:22;;;;;;;4.30;4.00;;;25.20;99.90;;;;;;4971263;28;20633;-72
2021/07/08 10:03:49;;;;;;;4.63;4.23;;;25.30;99.90;;;;;;4989121;28;21169;-72
2021/07/08 10:06:16;;;;;;;4.57;4.13;;;25.30;99.90;;;;;;4983005;28;20705;-72
2021/07/08 10:08:42;;;;;;;4.90;4.20;;;25.40;99.90;;;;;;4982953;28;20950;-73
2021/07/08 10:11:16;;;;;;;5.30;4.80;;;25.40;99.90;;;;;;4965871;28;20669;-73
2021/07/08 10:13:45;;;;;;;25.23;6.00;;;25.40;99.90;;;;;;4959295;28;20659;-69
2021/07/08 10:16:13;;;;;;;11.63;4.60;;;25.40;99.90;;;;;;4955170;28;20672;-69
2021/07/08 10:18:41;;;;;;;8.90;4.73;;;25.40;99.90;;;;;;4974179;28;20780;-68
2021/07/08 10:21:07;;;;;;;4.77;4.33;;;25.40;99.90;;;;;;4959695;28;20695;-68
2021/07/08 10:23:35;;;;;;;4.13;3.83;;;25.40;99.90;;;;;;4964106;28;20675;-69
2021/07/08 10:26:04;;;;;;;4.23;3.87;;;25.40;99.90;;;;;;4961741;28;20661;-69
2021/07/08 10:28:32;;;;;;;5.00;4.60;;;25.40;99.90;;;;;;4962040;28;20700;-69
2021/07/08 10:30:58;;;;;;;4.27;3.97;;;25.40;99.90;;;;;;4977427;28;20636;-69
2021/07/08 10:33:24;;;;;;;6.13;4.80;;;25.40;99.90;;;;;;4975149;28;21212;-70
2021/07/08 10:35:52;;;;;;;5.47;4.60;;;25.50;99.90;;;;;;4978860;28;20666;-69
2021/07/08 10:38:30;;;;;;;5.80;4.40;;;25.50;99.90;;;;;;4979960;28;20569;-69
2021/07/08 10:40:58;;;;;;;5.27;4.57;;;25.60;99.90;;;;;;4977603;28;20630;-69
2021/07/08 10:43:43;;;;;;;8.70;4.53;;;25.70;99.90;;;;;;4974026;28;20617;-68
2021/07/08 10:46:15;;;;;;;4.37;4.07;;;25.80;99.90;;;;;;4975080;28;20669;-68
2021/07/08 10:48:46;;;;;;;4.47;4.07;;;25.70;99.90;;;;;;4955292;28;20756;-66
2021/07/08 10:51:26;;;;;;;6.83;4.10;;;25.80;99.90;;;;;;4975218;28;20761;-67
2021/07/08 10:53:52;;;;;;;4.60;4.20;;;25.80;99.90;;;;;;4956210;28;20617;-68
2021/07/08 10:56:31;;;;;;;5.17;3.93;;;25.80;99.90;;;;;;4957438;28;20652;-68
2021/07/08 10:58:56;;;;;;;5.17;4.00;;;25.90;99.90;;;;;;4968827;28;20206;-67
2021/07/08 11:01:22;;;;;;;3.97;3.63;;;26.00;99.90;;;;;;4969962;28;21160;-67
2021/07/08 11:03:57;;;;;;;4.30;4.00;;;26.00;99.90;;;;;;4952285;28;20183;-67
2021/07/08 11:06:31;;;;;;;5.90;4.13;;;26.10;99.90;;;;;;4956372;28;20202;-67
2021/07/08 11:09:16;;;;;;;4.20;3.90;;;26.20;99.90;;;;;;4956966;28;20943;-68
2021/07/08 11:11:42;;;;;;;4.70;4.20;;;26.30;99.90;;;;;;4975943;28;21200;-67
2021/07/08 11:14:07;;;;;;;4.00;3.73;;;26.30;99.90;;;;;;4973754;28;20651;-67
2021/07/08 11:16:46;;;;;;;5.17;4.20;;;26.40;99.90;;;;;;4968878;28;20744;-67
2021/07/08 11:19:29;;;;;;;5.60;4.33;;;26.40;99.90;;;;;;4951818;28;20712;-67
2021/07/08 11:21:58;;;;;;;4.30;3.87;;;26.40;99.90;;;;;;4973007;28;20645;-65
2021/07/08 11:24:51;;;;;;;5.50;3.90;;;26.50;99.90;;;;;;4957750;28;21224;-69
2021/07/08 11:27:23;;;;;;;5.27;4.70;;;26.60;99.90;;;;;;4958044;28;21223;-69
2021/07/08 11:29:54;;;;;;;4.60;4.07;;;26.60;99.90;;;;;;4968988;28;21263;-69
2021/07/08 11:32:24;;;;;;;4.93;4.53;;;26.70;99.90;;;;;;4945277;28;20637;-70
2021/07/08 11:34:51;;;;;;;5.83;4.00;;;26.70;99.90;;;;;;4959326;28;24909;-70
2021/07/08 11:37:21;;;;;;;5.33;4.70;;;26.80;99.90;;;;;;4951827;28;20660;-70
2021/07/08 11:39:52;;;;;;;7.60;4.80;;;26.90;99.90;;;;;;4955084;28;20653;-70
2021/07/08 11:42:18;;;;;;;4.37;4.07;;;26.90;99.90;;;;;;4965390;28;20692;-70
2021/07/08 11:44:46;;;;;;;6.53;4.80;;;26.90;99.90;;;;;;4952414;28;20663;-70
2021/07/08 11:47:12;;;;;;;5.23;4.33;;;26.90;99.90;;;;;;4956561;28;20289;-73
2021/07/08 11:49:37;;;;;;;5.10;4.63;;;27.00;99.90;;;;;;4953126;28;21094;-70
2021/07/08 11:52:20;;;;;;;5.57;4.70;;;27.10;99.90;;;;;;4959782;28;21175;-69
2021/07/08 11:54:57;;;;;;;5.23;4.80;;;27.20;99.90;;;;;;4975292;28;20261;-70
2021/07/08 11:57:22;;;;;;;3.77;3.47;;;27.20;99.90;;;;;;4966842;28;20625;-70
2021/07/08 11:59:51;;;;;;;3.93;3.60;;;27.20;99.90;;;;;;4946701;28;20805;-70
2021/07/08 12:02:46;;;;;;;4.00;3.70;;;27.30;99.90;;;;;;4967421;28;20615;-71
2021/07/08 12:05:16;;;;;;;5.00;3.77;;;27.40;99.90;;;;;;4957292;28;20665;-69
2021/07/08 12:07:50;;;;;;;4.50;4.10;;;27.50;99.90;;;;;;4947696;28;20693;-70
2021/07/08 12:10:23;;;;;;;4.30;3.90;;;27.60;99.90;;;;;;4950445;28;22111;-69
2021/07/08 12:12:52;;;;;;;5.17;3.97;;;27.80;99.90;;;;;;4968105;28;20701;-69
2021/07/08 12:15:18;;;;;;;4.30;4.00;;;27.70;99.90;;;;;;4950754;28;20687;-69
2021/07/08 12:17:43;;;;;;;4.03;3.40;;;27.90;99.90;;;;;;4972316;28;20660;-69
2021/07/08 12:20:10;;;;;;;3.47;3.10;;;27.80;99.90;;;;;;4950425;28;20279;-70
2021/07/08 12:22:59;;;;;;;3.10;2.90;;;27.80;99.90;;;;;;4949258;28;20271;-70
2021/07/08 12:25:25;;;;;;;3.63;3.33;;;27.80;99.90;;;;;;4947122;28;20723;-70
2021/07/08 12:27:52;;;;;;;3.77;3.27;;;27.80;99.90;;;;;;4971011;28;20936;-70
2021/07/08 12:30:35;;;;;;;4.20;3.77;;;27.70;99.90;;;;;;4964581;28;20624;-70
2021/07/08 12:33:08;;;;;;;3.77;3.20;;;27.80;99.90;;;;;;4946162;28;20641;-70
2021/07/08 12:35:39;;;;;;;4.47;4.07;;;27.80;99.90;;;;;;4940482;28;20664;-71
2021/07/08 12:38:04;;;;;;;3.80;3.50;;;27.90;99.90;;;;;;4962123;28;21212;-69
2021/07/08 12:40:30;;;;;;;5.10;3.73;;;28.00;99.90;;;;;;4968996;28;20621;-70
2021/07/08 12:42:58;;;;;;;4.23;3.93;;;28.10;99.90;;;;;;4972023;28;20202;-70
2021/07/08 12:45:24;;;;;;;4.10;3.77;;;28.20;99.90;;;;;;4967894;28;20660;-69
2021/07/08 12:47:54;;;;;;;4.80;4.20;;;28.20;99.90;;;;;;4972462;28;20613;-70
2021/07/08 12:50:22;;;;;;;4.60;4.23;;;28.40;99.90;;;;;;4970321;28;20191;-70
2021/07/08 12:52:47;;;;;;;4.87;3.33;;;28.50;99.90;;;;;;4959515;28;20604;-73
2021/07/08 12:55:35;;;;;;;5.47;3.77;;;28.60;99.90;;;;;;4967306;28;20648;-70
2021/07/08 12:58:03;;;;;;;8.00;4.13;;;28.70;99.90;;;;;;4974687;28;20199;-70